Time;durP1;ratioP1;P1;durP2;ratioP2;P2;SDS_P1;SDS_P2;PMS_P1;PMS_P2;Temp;Humidity;BMP_temperature;BMP_pressure;BME280_temperature;BME280_humidity;BME280_pressure;Samples;Min_cycle;Max_cycle;Signal;HPM_P1;HPM_P2
2021/06/14 00:01:44;;;;;;;18.30;2.20;;;;;;;10.16;72.72;101095.59;126641;1092;22838;-60
2021/06/14 00:04:15;;;;;;;12.10;2.20;;;;;;;10.14;72.73;101097.30;125532;1093;27198;-60
2021/06/14 00:06:47;;;;;;;10.27;2.20;;;;;;;10.10;72.90;101091.02;127780;1093;22770;-62
2021/06/14 00:09:20;;;;;;;14.10;1.93;;;;;;;10.08;72.91;101083.11;125694;1093;22797;-62
2021/06/14 00:11:52;;;;;;;10.70;2.00;;;;;;;10.06;72.83;101096.73;125815;1093;25842;-61
2021/06/14 00:14:28;;;;;;;12.27;2.47;;;;;;;10.03;73.12;101089.30;125665;1093;22773;-61
2021/06/14 00:16:59;;;;;;;13.97;2.57;;;;;;;10.01;73.42;101094.55;125753;1093;22773;-63
2021/06/14 00:19:30;;;;;;;9.40;1.90;;;;;;;9.98;73.62;101091.88;125713;1093;22798;-62
2021/06/14 00:22:04;;;;;;;9.47;2.13;;;;;;;9.95;73.54;101093.59;125851;1093;22765;-61
2021/06/14 00:24:38;;;;;;;10.43;2.83;;;;;;;9.94;73.34;101094.80;126238;1093;22777;-62
2021/06/14 00:27:12;;;;;;;12.43;2.27;;;;;;;9.91;73.40;101090.12;126033;1092;22794;-62
2021/06/14 00:29:46;;;;;;;10.77;2.33;;;;;;;9.89;73.53;101087.01;126331;1093;22768;-62
2021/06/14 00:32:17;;;;;;;13.10;2.50;;;;;;;9.86;73.25;101085.14;126170;1092;22771;-62
2021/06/14 00:34:49;;;;;;;14.77;2.20;;;;;;;9.84;73.57;101084.03;126237;1093;22746;-62
2021/06/14 00:37:21;;;;;;;10.60;2.40;;;;;;;9.78;73.26;101081.84;126267;1092;25781;-62
2021/06/14 00:39:55;;;;;;;12.67;2.40;;;;;;;9.74;73.29;101091.56;126295;1092;22761;-62
2021/06/14 00:42:27;;;;;;;10.40;2.20;;;;;;;9.70;73.19;101085.33;126288;1093;22832;-61
2021/06/14 00:44:58;;;;;;;11.53;2.37;;;;;;;9.65;73.40;101080.32;126293;1092;22776;-62
2021/06/14 00:47:30;;;;;;;10.10;2.47;;;;;;;9.63;73.51;101080.78;126195;1093;22761;-62
2021/06/14 00:50:02;;;;;;;9.67;2.33;;;;;;;9.60;73.33;101083.70;126185;1093;27384;-62
2021/06/14 00:52:33;;;;;;;13.33;2.50;;;;;;;9.55;73.47;101085.05;126276;1093;22923;-62
2021/06/14 00:55:05;;;;;;;11.13;3.03;;;;;;;9.55;73.46;101084.27;126213;1092;25685;-62
2021/06/14 00:57:38;;;;;;;12.43;2.53;;;;;;;9.51;73.55;101078.83;126349;1092;22839;-62
2021/06/14 01:00:12;;;;;;;10.50;2.30;;;;;;;9.49;73.53;101086.86;126248;1093;22770;-63
2021/06/14 01:02:44;;;;;;;9.30;2.60;;;;;;;9.48;73.56;101088.08;126285;1093;22767;-61
2021/06/14 01:05:15;;;;;;;19.80;2.70;;;;;;;9.44;73.52;101078.28;126331;1093;22781;-62
2021/06/14 01:07:47;;;;;;;11.05;2.70;;;;;;;9.42;73.74;101081.52;126192;1093;22805;-62
2021/06/14 01:10:19;;;;;;;10.65;3.50;;;;;;;9.41;73.85;101079.20;126306;1093;22866;-61
2021/06/14 01:13:07;;;;;;;13.27;2.77;;;;;;;9.40;73.85;101078.41;126319;1093;22730;-62
2021/06/14 01:15:50;;;;;;;12.07;3.40;;;;;;;9.37;73.93;101079.30;126300;1092;22749;-62
2021/06/14 01:18:29;;;;;;;15.70;3.37;;;;;;;9.36;74.02;101082.55;126267;1093;22763;-62
2021/06/14 01:21:10;;;;;;;13.60;3.30;;;;;;;9.33;74.10;101084.22;126296;1092;22796;-61
2021/06/14 01:24:02;;;;;;;;;;;;;;;9.34;74.17;101085.00;126236;1091;22844;-62
2021/06/14 01:26:41;;;;;;;12.80;3.13;;;;;;;9.31;73.99;101083.89;126219;1093;21469;-62
2021/06/14 01:29:15;;;;;;;15.33;3.20;;;;;;;9.29;73.87;101083.56;126288;1093;22788;-62
2021/06/14 01:31:48;;;;;;;15.00;3.37;;;;;;;9.26;73.83;101078.91;126251;1092;22782;-61
2021/06/14 01:34:20;;;;;;;12.63;3.10;;;;;;;9.26;73.84;101086.48;126363;1093;22794;-61
2021/06/14 01:36:55;;;;;;;13.13;3.37;;;;;;;9.24;73.77;101081.36;126302;1093;22822;-62
2021/06/14 01:39:33;;;;;;;11.57;2.77;;;;;;;9.21;73.56;101089.84;126359;1091;23609;-61
2021/06/14 01:42:06;;;;;;;15.53;3.43;;;;;;;9.16;73.71;101082.05;126216;1092;22802;-62
2021/06/14 01:44:40;;;;;;;15.47;3.30;;;;;;;9.12;73.76;101086.95;126338;1093;22966;-62
2021/06/14 01:47:15;;;;;;;13.07;3.50;;;;;;;9.11;73.62;101088.17;126278;1093;22704;-62
2021/06/14 01:49:47;;;;;;;14.27;3.30;;;;;;;9.07;73.78;101076.38;126401;1093;22742;-62
2021/06/14 01:52:22;;;;;;;13.00;3.07;;;;;;;9.04;73.90;101080.06;126161;1093;22775;-61
2021/06/14 01:54:55;;;;;;;9.73;2.70;;;;;;;9.03;73.77;101078.50;126222;1093;24420;-62
2021/06/14 01:57:27;;;;;;;12.07;3.40;;;;;;;8.98;73.63;101073.51;126247;1093;22900;-62
2021/06/14 02:00:00;;;;;;;18.50;3.57;;;;;;;8.94;73.81;101074.39;126278;1093;22782;-61
2021/06/14 02:02:31;;;;;;;16.40;4.30;;;;;;;8.91;73.90;101071.73;126654;1091;22865;-62
2021/06/14 02:05:04;;;;;;;10.30;2.90;;;;;;;8.88;73.86;101080.97;126137;1092;22866;-62
2021/06/14 02:07:37;;;;;;;17.07;3.77;;;;;;;8.86;74.10;101073.07;126601;1092;24960;-62
2021/06/14 02:10:10;;;;;;;17.07;4.50;;;;;;;8.85;74.36;101065.17;126317;1093;22747;-63
2021/06/14 02:12:45;;;;;;;16.97;4.13;;;;;;;8.80;74.51;101068.50;126561;1093;22787;-62
2021/06/14 02:15:19;;;;;;;17.30;4.23;;;;;;;8.77;74.73;101059.03;126312;1093;22794;-61
2021/06/14 02:17:53;;;;;;;17.07;4.47;;;;;;;8.75;74.90;101064.27;126419;1093;22803;-61
2021/06/14 02:20:28;;;;;;;17.97;4.13;;;;;;;8.73;74.92;101071.53;126285;1091;23059;-62
2021/06/14 02:23:00;;;;;;;13.33;3.33;;;;;;;8.71;74.89;101063.61;126288;1093;22797;-62
2021/06/14 02:25:31;;;;;;;12.50;3.50;;;;;;;8.70;74.70;101052.92;126240;1092;22782;-61
2021/06/14 02:28:03;;;;;;;11.87;3.77;;;;;;;8.68;74.64;101067.30;126219;1093;24482;-62
2021/06/14 02:30:35;;;;;;;14.17;3.43;;;;;;;8.65;74.90;101073.75;126311;1093;22783;-61
2021/06/14 02:33:08;;;;;;;15.07;3.83;;;;;;;8.64;75.23;101072.20;126150;1093;22766;-61
2021/06/14 02:35:39;;;;;;;15.33;4.37;;;;;;;8.62;75.06;101074.66;126235;1092;22771;-61
2021/06/14 02:38:14;;;;;;;15.27;4.13;;;;;;;8.60;75.16;101065.19;126097;1093;22893;-62
2021/06/14 02:40:50;;;;;;;20.03;4.43;;;;;;;8.57;75.40;101064.06;126188;1093;22854;-62
2021/06/14 02:43:23;;;;;;;15.70;3.75;;;;;;;8.57;75.64;101066.06;126137;1093;22864;-61
2021/06/14 02:45:56;;;;;;;14.63;3.60;;;;;;;8.54;76.04;101064.97;126567;1092;22801;-61
2021/06/14 02:48:28;;;;;;;16.20;3.83;;;;;;;8.54;75.77;101061.41;126329;1093;22826;-62
2021/06/14 02:51:01;;;;;;;16.90;3.80;;;;;;;8.55;75.81;101066.52;126288;1093;22817;-61
2021/06/14 02:53:33;;;;;;;16.57;4.43;;;;;;;8.56;76.09;101061.73;126419;1093;22777;-62
2021/06/14 02:56:09;;;;;;;13.87;3.87;;;;;;;8.55;76.36;101062.94;126221;1093;22811;-62
2021/06/14 02:58:45;;;;;;;17.27;4.67;;;;;;;8.54;76.42;101066.97;126282;1092;22911;-62
2021/06/14 03:01:20;;;;;;;17.00;4.65;;;;;;;8.55;76.66;101069.30;126105;1092;22742;-61
2021/06/14 03:03:54;;;;;;;14.47;4.47;;;;;;;8.56;76.75;101070.87;126480;1093;24467;-62
2021/06/14 03:06:27;;;;;;;15.50;5.00;;;;;;;8.59;76.80;101064.40;126208;1093;24127;-61
2021/06/14 03:09:00;;;;;;;16.23;4.87;;;;;;;8.62;77.24;101065.52;126196;1093;22794;-61
2021/06/14 03:11:32;;;;;;;19.70;4.80;;;;;;;8.64;77.35;101066.63;126314;1093;22845;-61
2021/06/14 03:14:06;;;;;;;18.83;4.80;;;;;;;8.67;77.32;101062.94;126373;1092;22797;-62
2021/06/14 03:16:39;;;;;;;13.83;4.27;;;;;;;8.73;77.48;101066.72;126196;1091;24922;-61
2021/06/14 03:19:13;;;;;;;20.57;5.37;;;;;;;8.77;77.65;101074.98;126077;1093;22805;-63
2021/06/14 03:21:45;;;;;;;17.67;4.10;;;;;;;8.80;77.67;101060.16;127290;1093;22775;-63
2021/06/14 03:24:19;;;;;;;16.40;4.87;;;;;;;8.85;77.65;101067.95;128406;1093;22758;-63
2021/06/14 03:26:51;;;;;;;17.03;4.90;;;;;;;8.92;77.91;101067.70;126771;1093;22809;-62
2021/06/14 03:29:25;;;;;;;19.57;4.77;;;;;;;9.00;78.21;101062.70;126358;1093;22800;-63
2021/06/14 03:31:57;;;;;;;18.50;4.73;;;;;;;9.08;78.37;101066.80;126317;1093;22732;-63
2021/06/14 03:34:29;;;;;;;16.80;4.70;;;;;;;9.16;78.39;101065.33;126326;1093;22766;-62
2021/06/14 03:37:02;;;;;;;16.47;5.17;;;;;;;9.23;78.58;101065.86;126392;1092;22734;-61
2021/06/14 03:39:35;;;;;;;14.77;4.60;;;;;;;9.32;78.55;101067.95;126421;1092;22764;-61
2021/06/14 03:42:08;;;;;;;14.00;4.93;;;;;;;9.42;78.71;101066.80;126467;1093;22770;-62
2021/06/14 03:44:40;;;;;;;21.30;5.07;;;;;;;9.51;78.58;101070.47;126366;1093;22767;-62
2021/06/14 03:47:12;;;;;;;14.97;4.23;;;;;;;9.59;78.69;101065.41;126328;1091;22806;-63
2021/06/14 03:49:44;;;;;;;19.30;5.20;;;;;;;9.67;78.83;101069.50;126277;1093;22775;-60
2021/06/14 03:52:15;;;;;;;17.17;5.00;;;;;;;9.75;78.73;101068.80;126198;1093;22782;-62
2021/06/14 03:54:46;;;;;;;18.53;5.20;;;;;;;9.84;78.56;101070.88;126321;1092;25799;-62
2021/06/14 03:57:19;;;;;;;14.17;4.80;;;;;;;9.93;78.86;101062.55;126153;1093;22758;-62
2021/06/14 03:59:50;;;;;;;16.23;4.63;;;;;;;10.05;79.14;101069.30;126244;1093;22793;-62
2021/06/14 04:02:23;;;;;;;17.73;4.40;;;;;;;10.13;79.11;101068.62;126185;1093;22780;-60
2021/06/14 04:04:55;;;;;;;23.10;5.50;;;;;;;10.21;78.93;101072.69;126185;1092;22768;-62
2021/06/14 04:07:27;;;;;;;18.30;5.53;;;;;;;10.30;78.76;101071.97;126333;1092;22777;-62
2021/06/14 04:09:59;;;;;;;15.17;4.83;;;;;;;10.40;79.02;101076.36;126338;1093;24207;-61
2021/06/14 04:12:33;;;;;;;16.73;5.30;;;;;;;10.50;79.07;101069.58;126435;1093;24829;-62
2021/06/14 04:15:07;;;;;;;17.87;4.07;;;;;;;10.61;79.06;101067.16;126101;1091;24465;-61
2021/06/14 04:17:39;;;;;;;12.40;3.65;;;;;;;10.70;78.67;101074.79;126115;1093;22821;-60
2021/06/14 04:20:15;;;;;;;15.80;4.53;;;;;;;10.78;78.78;101064.89;126095;1093;22780;-60
2021/06/14 04:22:46;;;;;;;18.07;4.10;;;;;;;10.86;78.73;101066.94;125859;1093;22728;-58
2021/06/14 04:25:19;;;;;;;19.93;4.47;;;;;;;10.92;78.68;101061.51;125922;1092;22801;-60
2021/06/14 04:27:50;;;;;;;13.30;3.90;;;;;;;11.01;78.35;101065.09;126263;1093;22811;-59
2021/06/14 04:30:23;;;;;;;19.37;5.27;;;;;;;11.08;78.65;101056.42;125879;1091;24297;-60
2021/06/14 04:32:57;;;;;;;19.23;4.50;;;;;;;11.16;77.90;101066.06;126131;1093;22767;-59
2021/06/14 04:35:28;;;;;;;18.43;4.40;;;;;;;11.23;78.05;101062.98;126060;1093;28525;-59
2021/06/14 04:38:01;;;;;;;15.13;3.77;;;;;;;11.30;78.01;101065.45;125840;1092;22785;-60
2021/06/14 04:40:33;;;;;;;15.80;4.35;;;;;;;11.37;77.45;101058.78;125592;1093;22798;-61
2021/06/14 04:43:05;;;;;;;12.90;4.17;;;;;;;11.44;77.30;101066.88;126201;1093;27304;-62
2021/06/14 04:45:36;;;;;;;18.30;4.57;;;;;;;11.52;77.47;101061.75;125700;1092;22807;-62
2021/06/14 04:48:09;;;;;;;15.00;4.60;;;;;;;11.58;77.51;101066.25;125685;1092;22761;-62
2021/06/14 04:50:41;;;;;;;17.47;4.17;;;;;;;11.66;77.12;101067.53;125940;1093;27174;-62
2021/06/14 04:53:12;;;;;;;14.60;4.27;;;;;;;11.73;76.78;101072.03;125790;1092;24476;-63
2021/06/14 04:55:43;;;;;;;16.10;4.27;;;;;;;11.79;77.03;101075.76;125757;1092;28289;-62
2021/06/14 04:58:16;;;;;;;14.90;4.53;;;;;;;11.91;76.94;101072.80;126114;1093;22767;-63
2021/06/14 05:00:48;;;;;;;19.53;4.17;;;;;;;12.04;76.25;101061.43;125815;1093;22928;-63
2021/06/14 05:03:19;;;;;;;18.27;5.20;;;;;;;12.11;76.00;101058.28;125715;1092;22773;-63
2021/06/14 05:05:52;;;;;;;16.70;4.40;;;;;;;12.15;75.90;101065.28;125689;1093;22823;-63
2021/06/14 05:08:23;;;;;;;18.10;5.00;;;;;;;12.23;75.67;101064.96;126195;1093;22771;-63
2021/06/14 05:10:55;;;;;;;13.43;3.97;;;;;;;12.31;75.63;101064.14;125900;1093;25878;-63
2021/06/14 05:13:27;;;;;;;19.25;4.90;;;;;;;12.38;75.36;101069.41;125863;1093;22770;-63
2021/06/14 05:15:58;;;;;;;15.30;4.43;;;;;;;12.45;75.27;101071.11;125697;1093;22773;-62
2021/06/14 05:18:32;;;;;;;14.80;4.35;;;;;;;12.54;74.89;101066.23;125669;1093;23773;-62
2021/06/14 05:21:04;;;;;;;18.13;5.03;;;;;;;12.63;74.92;101068.23;125827;1093;22770;-62
2021/06/14 05:23:35;;;;;;;15.35;4.20;;;;;;;12.72;74.99;101066.19;125751;1093;22951;-62
2021/06/14 05:26:06;;;;;;;15.40;5.03;;;;;;;12.83;73.88;101068.44;125577;1093;22794;-61
2021/06/14 05:28:38;;;;;;;19.25;4.50;;;;;;;12.90;74.47;101068.89;125616;1093;22805;-62
2021/06/14 05:31:10;;;;;;;16.50;4.80;;;;;;;12.96;74.14;101069.78;125692;1092;22857;-63
2021/06/14 05:33:41;;;;;;;19.50;4.70;;;;;;;13.03;73.46;101075.02;126492;1093;22803;-63
2021/06/14 05:36:12;;;;;;;18.40;4.25;;;;;;;13.06;73.71;101075.35;125535;1093;27555;-62
2021/06/14 05:38:45;;;;;;;16.30;4.60;;;;;;;13.13;73.54;101069.41;125692;1093;23461;-63
2021/06/14 05:41:18;;;;;;;17.40;5.00;;;;;;;13.22;74.33;101069.36;125726;1093;22777;-62
2021/06/14 05:43:49;;;;;;;18.00;4.90;;;;;;;13.32;73.15;101073.64;125748;1092;22768;-63
2021/06/14 05:46:21;;;;;;;14.00;5.10;;;;;;;13.41;73.16;101076.37;125623;1092;22811;-63
2021/06/14 05:48:53;;;;;;;19.27;5.07;;;;;;;13.47;72.44;101086.45;125828;1093;25877;-65
2021/06/14 05:51:24;;;;;;;13.80;3.80;;;;;;;13.54;72.43;101074.88;125642;1092;23136;-62
2021/06/14 05:53:56;;;;;;;16.27;4.83;;;;;;;13.60;72.91;101078.56;125643;1093;22770;-63
2021/06/14 05:56:28;;;;;;;17.63;4.97;;;;;;;13.67;71.87;101071.81;125825;1093;22804;-64
2021/06/14 05:58:59;;;;;;;17.75;5.10;;;;;;;13.74;72.32;101066.59;125504;1093;25308;-62
2021/06/14 06:01:32;;;;;;;19.50;5.35;;;;;;;13.84;72.71;101070.11;125612;1093;24198;-63
2021/06/14 06:04:05;;;;;;;17.43;5.47;;;;;;;13.94;71.44;101070.80;125659;1093;22762;-62
2021/06/14 06:06:36;;;;;;;18.60;4.83;;;;;;;13.99;70.99;101076.50;125692;1093;22784;-63
2021/06/14 06:09:08;;;;;;;18.60;4.95;;;;;;;14.06;71.35;101075.34;125626;1093;22804;-62
2021/06/14 06:11:40;;;;;;;17.75;4.95;;;;;;;14.18;70.86;101082.70;126320;1092;22835;-63
2021/06/14 06:14:14;;;;;;;22.73;5.30;;;;;;;14.27;71.44;101080.59;125898;1093;22776;-62
2021/06/14 06:16:54;;;;;;;19.05;5.30;;;;;;;14.36;71.01;101071.33;125711;1093;24461;-63
2021/06/14 06:19:25;;;;;;;15.40;4.67;;;;;;;14.40;70.19;101083.89;126061;1093;24429;-62
2021/06/14 06:21:57;;;;;;;19.37;6.33;;;;;;;14.47;71.05;101091.16;125760;1093;22774;-63
2021/06/14 06:24:29;;;;;;;18.30;5.30;;;;;;;14.55;70.60;101097.93;125729;1093;22897;-63
2021/06/14 06:27:01;;;;;;;17.95;6.20;;;;;;;14.67;70.45;101094.03;125909;1093;24429;-62
2021/06/14 06:29:33;;;;;;;14.43;4.50;;;;;;;14.80;70.30;101086.08;125953;1093;22774;-62
2021/06/14 06:32:05;;;;;;;16.10;5.35;;;;;;;14.90;70.21;101084.69;125760;1093;22763;-63
2021/06/14 06:34:38;;;;;;;18.30;5.73;;;;;;;15.00;69.84;101086.11;125993;1093;22801;-63
2021/06/14 06:37:10;;;;;;;16.30;5.20;;;;;;;15.11;69.62;101083.47;126025;1093;28273;-62
2021/06/14 06:39:42;;;;;;;20.45;5.45;;;;;;;15.25;69.26;101084.66;125765;1093;22786;-63
2021/06/14 06:42:14;;;;;;;15.73;5.13;;;;;;;15.32;68.88;101087.07;125756;1093;22800;-62
2021/06/14 06:44:45;;;;;;;18.70;5.90;;;;;;;15.37;67.80;101089.20;125770;1093;22943;-62
2021/06/14 06:47:17;;;;;;;15.35;4.85;;;;;;;15.41;68.01;101082.06;125735;1092;22800;-63
2021/06/14 06:49:48;;;;;;;15.27;5.73;;;;;;;15.50;68.43;101080.44;125862;1093;22936;-63
2021/06/14 06:52:20;;;;;;;19.67;4.63;;;;;;;15.62;67.65;101090.56;125745;1093;22795;-62
2021/06/14 06:54:51;;;;;;;22.10;5.87;;;;;;;15.69;66.34;101093.70;125742;1093;22794;-62
2021/06/14 06:57:25;;;;;;;16.95;4.55;;;;;;;15.74;66.69;101093.02;125677;1093;24655;-62
2021/06/14 06:59:56;;;;;;;18.50;4.43;;;;;;;15.78;65.70;101092.79;125890;1093;22814;-62
2021/06/14 07:02:27;;;;;;;23.75;5.75;;;;;;;15.79;66.32;101089.47;125762;1092;24165;-63
2021/06/14 07:04:59;;;;;;;14.70;4.40;;;;;;;15.84;66.74;101079.55;125747;1093;22799;-62
2021/06/14 07:07:30;;;;;;;14.80;4.95;;;;;;;15.94;65.94;101078.11;125711;1093;22788;-63
2021/06/14 07:10:04;;;;;;;19.30;4.90;;;;;;;16.03;66.50;101075.14;126041;1092;22766;-62
2021/06/14 07:12:38;;;;;;;16.80;5.40;;;;;;;16.11;65.07;101085.48;125832;1093;22781;-62
2021/06/14 07:15:12;;;;;;;17.95;5.30;;;;;;;16.26;65.08;101078.95;126101;1093;23611;-62
2021/06/14 07:17:44;;;;;;;19.67;5.63;;;;;;;16.40;64.85;101081.64;126023;1093;22784;-64
2021/06/14 07:20:17;;;;;;;18.83;4.93;;;;;;;16.53;64.31;101072.81;125914;1093;25993;-62
2021/06/14 07:22:49;;;;;;;17.55;5.05;;;;;;;16.57;63.51;101073.36;126047;1093;22992;-62
2021/06/14 07:25:21;;;;;;;18.73;5.43;;;;;;;16.61;63.45;101068.26;125807;1093;22788;-62
2021/06/14 07:27:53;;;;;;;17.70;5.15;;;;;;;16.70;62.18;101073.69;126036;1093;22852;-62
2021/06/14 07:30:25;;;;;;;15.90;4.90;;;;;;;16.72;61.30;101068.32;125687;1093;22804;-62
2021/06/14 07:32:57;;;;;;;18.60;5.40;;;;;;;16.70;60.85;101066.02;125669;1093;26255;-62
2021/06/14 07:35:29;;;;;;;13.50;4.70;;;;;;;16.70;61.13;101071.65;126201;1093;22773;-62
2021/06/14 07:38:00;;;;;;;17.85;5.90;;;;;;;16.78;61.53;101061.45;125744;1093;25569;-62
2021/06/14 07:40:32;;;;;;;22.25;5.90;;;;;;;16.91;61.64;101061.80;125775;1093;22797;-63
2021/06/14 07:43:04;;;;;;;17.87;5.73;;;;;;;16.98;60.64;101066.20;125871;1093;24483;-63
2021/06/14 07:45:36;;;;;;;17.40;4.95;;;;;;;17.03;60.16;101064.70;125862;1093;26946;-62
2021/06/14 07:48:11;;;;;;;21.90;5.20;;;;;;;16.99;59.39;101064.92;125851;1092;22943;-62
2021/06/14 07:50:45;;;;;;;14.30;4.25;;;;;;;16.94;59.48;101071.31;125833;1093;27248;-62
2021/06/14 07:53:17;;;;;;;15.35;4.95;;;;;;;16.83;59.14;101074.83;125768;1093;26255;-62
2021/06/14 07:55:52;;;;;;;18.93;5.50;;;;;;;16.75;59.29;101070.94;125633;1093;24473;-64
2021/06/14 07:58:24;;;;;;;14.20;4.67;;;;;;;16.71;58.91;101075.25;125777;1091;22793;-63
2021/06/14 08:00:56;;;;;;;19.85;5.45;;;;;;;16.71;59.29;101072.44;125703;1093;22761;-63
2021/06/14 08:03:29;;;;;;;15.60;5.05;;;;;;;16.77;59.06;101071.20;125913;1092;22768;-63
2021/06/14 08:06:04;;;;;;;16.55;4.15;;;;;;;16.82;58.85;101059.17;125624;1093;22761;-63
2021/06/14 08:08:37;;;;;;;18.15;4.90;;;;;;;16.86;58.49;101062.53;125825;1093;22774;-62
2021/06/14 08:11:10;;;;;;;17.05;5.75;;;;;;;16.85;58.23;101061.00;125799;1093;22839;-62
2021/06/14 08:13:42;;;;;;;17.05;5.65;;;;;;;16.85;57.72;101055.36;125755;1093;22770;-62
2021/06/14 08:16:16;;;;;;;15.00;5.20;;;;;;;16.89;58.08;101052.30;125764;1092;22777;-62
2021/06/14 08:18:59;;;;;;;15.20;4.15;;;;;;;16.88;57.74;101057.16;125670;1093;22911;-63
2021/06/14 08:21:43;;;;;;;17.50;5.30;;;;;;;16.86;57.76;101058.95;125688;1093;27186;-63
2021/06/14 08:27:03;;;;;;;19.35;6.05;;;;;;;16.86;56.73;101062.53;125773;1093;23338;-63
2021/06/14 08:29:35;;;;;;;14.85;4.40;;;;;;;16.79;56.64;101051.73;126014;1093;22797;-63
2021/06/14 08:32:08;;;;;;;16.00;5.35;;;;;;;16.85;57.12;101057.40;125795;1092;25998;-62
2021/06/14 08:34:39;;;;;;;17.30;4.85;;;;;;;16.92;56.98;101049.23;125827;1093;22781;-63
2021/06/14 08:37:11;;;;;;;19.00;5.00;;;;;;;17.06;57.44;101050.35;125910;1093;27176;-62
2021/06/14 08:39:43;;;;;;;14.40;5.05;;;;;;;17.17;56.82;101044.78;125899;1093;22751;-62
2021/06/14 08:42:15;;;;;;;15.25;4.65;;;;;;;17.31;56.05;101045.85;125878;1093;22880;-63
2021/06/14 08:44:46;;;;;;;17.80;5.30;;;;;;;17.40;56.13;101031.53;125877;1093;27194;-63
2021/06/14 08:47:19;;;;;;;13.50;3.40;;;;;;;17.49;54.82;101036.94;125788;1093;22770;-63
2021/06/14 08:49:52;;;;;;;14.75;3.80;;;;;;;17.52;55.02;101027.50;125890;1092;22797;-64
2021/06/14 08:52:23;;;;;;;14.00;4.10;;;;;;;17.64;54.69;101041.14;125777;1093;22858;-62
2021/06/14 08:54:55;;;;;;;19.25;5.35;;;;;;;17.71;54.57;101037.05;125797;1092;27651;-63
2021/06/14 08:57:27;;;;;;;13.15;4.25;;;;;;;17.77;54.61;101027.30;125774;1093;24471;-62
2021/06/14 08:59:59;;;;;;;16.53;4.70;;;;;;;17.78;54.52;101031.67;125998;1092;22851;-63
2021/06/14 09:02:34;;;;;;;12.45;3.85;;;;;;;17.85;52.98;101032.45;125803;1093;26274;-63
2021/06/14 09:05:07;;;;;;;11.70;3.95;;;;;;;17.88;53.98;101034.27;125884;1093;23008;-62
2021/06/14 09:07:41;;;;;;;15.25;4.55;;;;;;;17.97;53.20;101031.19;125886;1092;22916;-62
2021/06/14 09:10:28;;;;;;;12.25;3.40;;;;;;;17.98;52.14;101022.19;125871;1093;22804;-62
2021/06/14 09:13:13;;;;;;;16.90;3.60;;;;;;;17.89;53.37;101022.45;125879;1092;22757;-62
2021/06/14 09:15:47;;;;;;;18.65;4.50;;;;;;;17.94;52.08;101026.58;125824;1093;22800;-63
2021/06/14 09:18:21;;;;;;;11.37;2.93;;;;;;;17.95;51.74;101020.41;125913;1093;26254;-63
2021/06/14 09:21:02;;;;;;;13.40;4.30;;;;;;;17.96;52.39;101026.83;125835;1093;22774;-63
2021/06/14 09:23:47;;;;;;;14.47;4.10;;;;;;;17.97;52.56;101022.71;125948;1093;22829;-63
2021/06/14 09:26:28;;;;;;;20.97;4.03;;;;;;;18.03;51.44;101024.27;125949;1093;22794;-63
2021/06/14 09:29:02;;;;;;;14.33;4.67;;;;;;;18.15;52.53;101020.16;125904;1093;25877;-63
2021/06/14 09:31:42;;;;;;;16.83;4.27;;;;;;;18.24;51.55;101008.61;125980;1093;22767;-63
2021/06/14 09:34:14;;;;;;;18.30;4.40;;;;;;;18.36;52.22;101015.80;125871;1093;22860;-62
2021/06/14 09:36:58;;;;;;;14.30;4.85;;;;;;;18.43;51.22;101018.15;125809;1093;22875;-64
2021/06/14 09:39:35;;;;;;;13.30;4.40;;;;;;;18.50;50.75;101017.61;125802;1093;22807;-63
2021/06/14 09:42:17;;;;;;;13.93;4.17;;;;;;;18.56;51.04;101012.72;125815;1093;22773;-62
2021/06/14 09:44:52;;;;;;;13.93;4.17;;;;;;;18.61;51.13;101008.34;125910;1092;22773;-63
2021/06/14 09:47:30;;;;;;;13.83;4.57;;;;;;;18.67;51.04;100999.84;125947;1093;22854;-63
2021/06/14 09:50:06;;;;;;;14.50;4.15;;;;;;;18.73;50.63;101006.26;125916;1093;22781;-62
2021/06/14 09:52:37;;;;;;;15.23;4.00;;;;;;;18.76;51.10;101008.06;125865;1093;22931;-63
2021/06/14 09:55:15;;;;;;;12.93;3.93;;;;;;;18.80;49.25;101011.40;125733;1092;22804;-62
2021/06/14 09:57:49;;;;;;;11.25;3.85;;;;;;;18.71;50.34;101011.66;125695;1092;24158;-62
2021/06/14 10:00:23;;;;;;;14.85;3.90;;;;;;;18.72;49.80;101005.51;125690;1092;22794;-63
2021/06/14 10:02:59;;;;;;;12.05;4.00;;;;;;;18.82;50.17;101000.33;125855;1093;22723;-63
2021/06/14 10:05:31;;;;;;;16.37;4.13;;;;;;;18.90;49.71;100996.45;125656;1092;23583;-62
2021/06/14 10:08:05;;;;;;;13.93;4.03;;;;;;;19.05;49.58;100999.77;125740;1093;22791;-62
2021/06/14 10:10:41;;;;;;;14.90;3.93;;;;;;;19.11;49.99;100992.02;125935;1092;22802;-62
2021/06/14 10:13:12;;;;;;;14.08;4.08;;;;;;;19.30;49.82;100992.94;125738;1092;23511;-63
2021/06/14 10:15:44;;;;;;;14.30;3.80;;;;;;;19.49;49.73;100995.97;125664;1093;25456;-63
2021/06/14 10:18:21;;;;;;;16.63;4.40;;;;;;;19.54;49.18;100992.35;125594;1092;22800;-62
2021/06/14 10:20:52;;;;;;;17.13;4.30;;;;;;;19.52;48.57;100989.27;125767;1093;25849;-62
2021/06/14 10:23:24;;;;;;;13.55;3.88;;;;;;;19.46;48.13;100987.76;125725;1093;22773;-63
2021/06/14 10:25:57;;;;;;;11.45;3.20;;;;;;;19.32;48.32;100975.45;126071;1093;23357;-63
2021/06/14 10:28:30;;;;;;;11.83;2.90;;;;;;;19.30;47.79;100983.70;126192;1093;22723;-62
2021/06/14 10:31:02;;;;;;;15.55;4.70;;;;;;;19.31;48.37;100979.56;125861;1093;24496;-63
2021/06/14 10:33:34;;;;;;;15.33;3.90;;;;;;;19.36;47.62;100967.48;125839;1093;22780;-63
2021/06/14 10:36:08;;;;;;;12.18;3.35;;;;;;;19.33;47.65;100971.31;125864;1092;26286;-63
2021/06/14 10:38:43;;;;;;;11.10;3.57;;;;;;;19.37;47.82;100969.01;125760;1093;22777;-63
2021/06/14 10:41:17;;;;;;;14.90;3.78;;;;;;;19.43;48.37;100966.91;125921;1091;22861;-62
2021/06/14 10:43:49;;;;;;;12.18;3.85;;;;;;;19.46;47.69;100967.94;125774;1093;22871;-63
2021/06/14 10:46:23;;;;;;;16.13;3.28;;;;;;;19.48;47.16;100965.34;125830;1093;26107;-63
2021/06/14 10:49:00;;;;;;;18.07;3.70;;;;;;;19.47;47.02;100952.50;125723;1093;22787;-63
2021/06/14 10:51:32;;;;;;;10.55;3.38;;;;;;;19.50;46.75;100957.88;125765;1093;22778;-62
2021/06/14 10:54:16;;;;;;;15.03;3.73;;;;;;;19.45;46.80;100953.00;125839;1093;22816;-63
2021/06/14 10:56:48;;;;;;;12.20;3.50;;;;;;;19.40;46.61;100953.81;125845;1093;22819;-63
2021/06/14 10:59:20;;;;;;;12.38;4.33;;;;;;;19.37;46.50;100951.27;125809;1093;22878;-62
2021/06/14 11:01:51;;;;;;;14.58;4.43;;;;;;;19.31;46.39;100949.20;125752;1093;22761;-62
2021/06/14 11:04:29;;;;;;;15.03;4.33;;;;;;;19.28;46.49;100947.40;125717;1093;22797;-62
2021/06/14 11:07:02;;;;;;;13.85;3.78;;;;;;;19.26;47.28;100938.66;125721;1092;22790;-63
2021/06/14 11:09:44;;;;;;;13.78;3.50;;;;;;;19.36;47.25;100939.17;125838;1093;25881;-63
2021/06/14 11:12:29;;;;;;;14.37;4.17;;;;;;;19.44;47.54;100931.66;126027;1093;22914;-63
2021/06/14 11:15:10;;;;;;;14.23;4.10;;;;;;;19.55;46.96;100925.93;125824;1093;22753;-63
2021/06/14 11:17:42;;;;;;;19.10;5.18;;;;;;;19.63;47.41;100924.06;126395;1093;26047;-63
2021/06/14 11:20:15;;;;;;;12.98;4.63;;;;;;;19.72;47.23;100925.81;125719;1093;24189;-63
2021/06/14 11:22:54;;;;;;;12.88;3.93;;;;;;;19.79;46.28;100925.23;126009;1093;28676;-63
2021/06/14 11:25:29;;;;;;;11.68;2.88;;;;;;;19.76;45.92;100912.88;125804;1093;22807;-63
2021/06/14 11:28:05;;;;;;;10.68;3.65;;;;;;;19.73;45.37;100930.17;125863;1092;22752;-63
2021/06/14 11:30:38;;;;;;;10.80;2.75;;;;;;;19.68;44.63;100925.30;125846;1093;22780;-62
2021/06/14 11:33:23;;;;;;;10.68;2.68;;;;;;;19.68;45.46;100916.80;126027;1091;24453;-63
2021/06/14 11:35:57;;;;;;;11.33;2.78;;;;;;;19.73;45.29;100913.95;125989;1093;24305;-62
2021/06/14 11:38:29;;;;;;;14.73;3.58;;;;;;;19.76;44.69;100909.30;125687;1093;22767;-62
2021/06/14 11:41:03;;;;;;;11.88;3.38;;;;;;;19.80;45.00;100904.11;125685;1093;26219;-62
2021/06/14 11:43:35;;;;;;;11.63;2.77;;;;;;;19.84;44.79;100905.34;125689;1093;22767;-62